Time;durP1;ratioP1;P1;durP2;ratioP2;P2;SDS_P1;SDS_P2;PMS_P1;PMS_P2;Temp;Humidity;BMP_temperature;BMP_pressure;BME280_temperature;BME280_humidity;BME280_pressure;Samples;Min_cycle;Max_cycle;Signal;HPM_P1;HPM_P2
2020/01/01 00:00:06;;;;;;;595.35;381.05;;;;;;;-1.91;67.8457;96714.83;;;;
2020/01/01 00:01:07;;;;;;;595.35;381.05;;;;;;;-1.91;67.8457;96714.83;;;;
2020/01/01 00:02:10;;;;;;;595.35;381.05;;;;;;;-1.91;67.8457;96714.83;;;;
2020/01/01 00:03:11;;;;;;;136.85;72.34999;;;;;;;-2.04;68.07617;96713.25;;;;
2020/01/01 00:04:11;;;;;;;136.85;72.34999;;;;;;;-2.04;68.07617;96713.25;;;;
2020/01/01 00:05:12;;;;;;;136.85;72.34999;;;;;;;-2.04;68.07617;96713.25;;;;
2020/01/01 00:06:12;;;;;;;136.85;72.34999;;;;;;;-2.04;68.07617;96713.25;;;;
2020/01/01 00:07:13;;;;;;;136.85;72.34999;;;;;;;-2.04;68.07617;96713.25;;;;
2020/01/01 00:08:14;;;;;;;136.85;72.34999;;;;;;;-2.04;68.07617;96713.25;;;;
2020/01/01 00:09:15;;;;;;;136.85;72.34999;;;;;;;-2.04;68.07617;96713.25;;;;
2020/01/01 00:10:31;;;;;;;136.85;72.34999;;;;;;;-2.04;68.07617;96713.25;;;;
2020/01/01 00:11:44;;;;;;;136.85;72.34999;;;;;;;-2.04;68.07617;96713.25;;;;
2020/01/01 00:12:47;;;;;;;136.85;72.34999;;;;;;;-2.04;68.07617;96713.25;;;;
2020/01/01 00:13:48;;;;;;;206.2;102.95;;;;;;;-2.17;68.35645;96709.9;;;;
2020/01/01 00:14:48;;;;;;;206.2;102.95;;;;;;;-2.17;68.35645;96709.9;;;;
2020/01/01 00:15:49;;;;;;;206.2;102.95;;;;;;;-2.17;68.35645;96709.9;;;;
2020/01/01 00:16:49;;;;;;;206.2;102.95;;;;;;;-2.17;68.35645;96709.9;;;;
2020/01/01 00:17:50;;;;;;;206.2;102.95;;;;;;;-2.17;68.35645;96709.9;;;;
2020/01/01 00:18:50;;;;;;;206.2;102.95;;;;;;;-2.17;68.35645;96709.9;;;;
2020/01/01 00:19:51;;;;;;;206.2;102.95;;;;;;;-2.17;68.35645;96709.9;;;;
2020/01/01 00:20:52;;;;;;;206.2;102.95;;;;;;;-2.17;68.35645;96709.9;;;;
2020/01/01 00:21:52;;;;;;;206.2;102.95;;;;;;;-2.17;68.35645;96709.9;;;;
2020/01/01 00:22:52;;;;;;;206.2;102.95;;;;;;;-2.17;68.35645;96709.9;;;;
2020/01/01 00:23:53;;;;;;;287.25;153.95;;;;;;;-2.31;68.45996;96721.6;;;;
2020/01/01 00:24:54;;;;;;;287.25;153.95;;;;;;;-2.31;68.45996;96721.6;;;;
2020/01/01 00:25:54;;;;;;;287.25;153.95;;;;;;;-2.31;68.45996;96721.6;;;;
2020/01/01 00:26:55;;;;;;;287.25;153.95;;;;;;;-2.31;68.45996;96721.6;;;;
2020/01/01 00:27:55;;;;;;;287.25;153.95;;;;;;;-2.31;68.45996;96721.6;;;;
2020/01/01 00:28:56;;;;;;;287.25;153.95;;;;;;;-2.31;68.45996;96721.6;;;;
2020/01/01 00:29:56;;;;;;;287.25;153.95;;;;;;;-2.31;68.45996;96721.6;;;;
2020/01/01 00:30:57;;;;;;;287.25;153.95;;;;;;;-2.31;68.45996;96721.6;;;;
2020/01/01 00:31:57;;;;;;;287.25;153.95;;;;;;;-2.31;68.45996;96721.6;;;;
2020/01/01 00:32:58;;;;;;;287.25;153.95;;;;;;;-2.31;68.45996;96721.6;;;;
2020/01/01 00:33:58;;;;;;;287.25;153.95;;;;;;;-2.31;68.45996;96721.6;;;;
2020/01/01 00:34:59;;;;;;;192.4;97.89999;;;;;;;-2.44;68.54102;96729.72;;;;
2020/01/01 00:35:59;;;;;;;192.4;97.89999;;;;;;;-2.44;68.54102;96729.72;;;;
2020/01/01 00:37:00;;;;;;;192.4;97.89999;;;;;;;-2.44;68.54102;96729.72;;;;
2020/01/01 00:38:00;;;;;;;192.4;97.89999;;;;;;;-2.44;68.54102;96729.72;;;;
2020/01/01 00:39:01;;;;;;;192.4;97.89999;;;;;;;-2.44;68.54102;96729.72;;;;
2020/01/01 00:40:01;;;;;;;192.4;97.89999;;;;;;;-2.44;68.54102;96729.72;;;;
2020/01/01 00:41:03;;;;;;;192.4;97.89999;;;;;;;-2.44;68.54102;96729.72;;;;
2020/01/01 00:42:03;;;;;;;192.4;97.89999;;;;;;;-2.44;68.54102;96729.72;;;;
2020/01/01 00:43:04;;;;;;;192.4;97.89999;;;;;;;-2.44;68.54102;96729.72;;;;
2020/01/01 00:44:04;;;;;;;192.4;97.89999;;;;;;;-2.44;68.54102;96729.72;;;;
2020/01/01 00:45:05;;;;;;;141.35;71.85;;;;;;;-2.5;68.47852;96723.19;;;;
2020/01/01 00:46:05;;;;;;;141.35;71.85;;;;;;;-2.5;68.47852;96723.19;;;;
2020/01/01 00:47:06;;;;;;;141.35;71.85;;;;;;;-2.5;68.47852;96723.19;;;;
2020/01/01 00:48:06;;;;;;;141.35;71.85;;;;;;;-2.5;68.47852;96723.19;;;;
2020/01/01 00:49:07;;;;;;;141.35;71.85;;;;;;;-2.5;68.47852;96723.19;;;;
2020/01/01 00:50:07;;;;;;;141.35;71.85;;;;;;;-2.5;68.47852;96723.19;;;;
2020/01/01 00:51:08;;;;;;;141.35;71.85;;;;;;;-2.5;68.47852;96723.19;;;;
2020/01/01 00:52:08;;;;;;;141.35;71.85;;;;;;;-2.5;68.47852;96723.19;;;;
2020/01/01 00:53:09;;;;;;;141.35;71.85;;;;;;;-2.5;68.47852;96723.19;;;;
2020/01/01 00:54:09;;;;;;;141.35;71.85;;;;;;;-2.5;68.47852;96723.19;;;;
2020/01/01 00:55:10;;;;;;;141.35;71.85;;;;;;;-2.5;68.47852;96723.19;;;;
2020/01/01 00:56:10;;;;;;;133.5;62.60001;;;;;;;-2.55;68.49219;96736.75;;;;
2020/01/01 00:57:11;;;;;;;133.5;62.60001;;;;;;;-2.55;68.49219;96736.75;;;;
2020/01/01 00:58:11;;;;;;;133.5;62.60001;;;;;;;-2.55;68.49219;96736.75;;;;
2020/01/01 00:59:12;;;;;;;133.5;62.60001;;;;;;;-2.55;68.49219;96736.75;;;;
2020/01/01 01:00:13;;;;;;;133.5;62.60001;;;;;;;-2.55;68.49219;96736.75;;;;
2020/01/01 01:01:13;;;;;;;133.5;62.60001;;;;;;;-2.55;68.49219;96736.75;;;;
2020/01/01 01:02:14;;;;;;;133.5;62.60001;;;;;;;-2.55;68.49219;96736.75;;;;
2020/01/01 01:03:20;;;;;;;133.5;62.60001;;;;;;;-2.55;68.49219;96736.75;;;;
2020/01/01 01:04:22;;;;;;;133.5;62.60001;;;;;;;-2.55;68.49219;96736.75;;;;
2020/01/01 01:05:23;;;;;;;133.5;62.60001;;;;;;;-2.55;68.49219;96736.75;;;;
2020/01/01 01:06:24;;;;;;;133.5;62.60001;;;;;;;-2.55;68.49219;96736.75;;;;
2020/01/01 01:07:24;;;;;;;133.5;62.60001;;;;;;;-2.55;68.49219;96736.75;;;;
2020/01/01 01:08:24;;;;;;;133.5;62.60001;;;;;;;-2.55;68.49219;96736.75;;;;
2020/01/01 01:09:25;;;;;;;133.5;62.60001;;;;;;;-2.55;68.49219;96736.75;;;;
2020/01/01 01:10:32;;;;;;;133.5;62.60001;;;;;;;-2.55;68.49219;96736.75;;;;
2020/01/01 01:11:32;;;;;;;133.5;62.60001;;;;;;;-2.55;68.49219;96736.75;;;;
2020/01/01 01:12:33;;;;;;;133.5;62.60001;;;;;;;-2.55;68.49219;96736.75;;;;
2020/01/01 01:13:33;;;;;;;133.5;62.60001;;;;;;;-2.55;68.49219;96736.75;;;;
2020/01/01 01:14:34;;;;;;;133.5;62.60001;;;;;;;-2.55;68.49219;96736.75;;;;
2020/01/01 01:15:34;;;;;;;133.5;62.60001;;;;;;;-2.55;68.49219;96736.75;;;;
2020/01/01 01:16:35;;;;;;;133.5;62.60001;;;;;;;-2.55;68.49219;96736.75;;;;
2020/01/01 01:17:35;;;;;;;103.05;50.40001;;;;;;;-2.45;68.4668;96756.71;;;;
2020/01/01 01:18:36;;;;;;;103.05;50.40001;;;;;;;-2.45;68.4668;96756.71;;;;
2020/01/01 01:19:36;;;;;;;103.05;50.40001;;;;;;;-2.45;68.4668;96756.71;;;;
2020/01/01 01:20:37;;;;;;;103.05;50.40001;;;;;;;-2.45;68.4668;96756.71;;;;
2020/01/01 01:21:37;;;;;;;103.05;50.40001;;;;;;;-2.45;68.4668;96756.71;;;;
2020/01/01 01:22:38;;;;;;;103.05;50.40001;;;;;;;-2.45;68.4668;96756.71;;;;
2020/01/01 01:23:38;;;;;;;103.05;50.40001;;;;;;;-2.45;68.4668;96756.71;;;;
2020/01/01 01:24:39;;;;;;;103.05;50.40001;;;;;;;-2.45;68.4668;96756.71;;;;
2020/01/01 01:25:39;;;;;;;103.05;50.40001;;;;;;;-2.45;68.4668;96756.71;;;;
2020/01/01 01:26:40;;;;;;;103.05;50.40001;;;;;;;-2.45;68.4668;96756.71;;;;
2020/01/01 01:27:40;;;;;;;103.05;50.40001;;;;;;;-2.45;68.4668;96756.71;;;;
2020/01/01 01:28:49;;;;;;;118.05;55.00001;;;;;;;-2.05;68.29199;96775.97;;;;
2020/01/01 01:29:50;;;;;;;118.05;55.00001;;;;;;;-2.05;68.29199;96775.97;;;;
2020/01/01 01:30:51;;;;;;;118.05;55.00001;;;;;;;-2.05;68.29199;96775.97;;;;
2020/01/01 01:31:51;;;;;;;118.05;55.00001;;;;;;;-2.05;68.29199;96775.97;;;;
2020/01/01 01:32:52;;;;;;;118.05;55.00001;;;;;;;-2.05;68.29199;96775.97;;;;
2020/01/01 01:33:52;;;;;;;118.05;55.00001;;;;;;;-2.05;68.29199;96775.97;;;;
2020/01/01 01:34:53;;;;;;;118.05;55.00001;;;;;;;-2.05;68.29199;96775.97;;;;
2020/01/01 01:35:53;;;;;;;118.05;55.00001;;;;;;;-2.05;68.29199;96775.97;;;;
2020/01/01 01:36:54;;;;;;;118.05;55.00001;;;;;;;-2.05;68.29199;96775.97;;;;
2020/01/01 01:37:54;;;;;;;118.05;55.00001;;;;;;;-2.05;68.29199;96775.97;;;;
2020/01/01 01:38:55;;;;;;;225.35;115.1;;;;;;;-1.57;68.03516;96779.94;;;;
2020/01/01 01:39:55;;;;;;;225.35;115.1;;;;;;;-1.57;68.03516;96779.94;;;;
2020/01/01 01:40:56;;;;;;;225.35;115.1;;;;;;;-1.57;68.03516;96779.94;;;;
2020/01/01 01:41:56;;;;;;;225.35;115.1;;;;;;;-1.57;68.03516;96779.94;;;;
2020/01/01 01:42:57;;;;;;;225.35;115.1;;;;;;;-1.57;68.03516;96779.94;;;;
2020/01/01 01:43:57;;;;;;;225.35;115.1;;;;;;;-1.57;68.03516;96779.94;;;;
2020/01/01 01:44:58;;;;;;;225.35;115.1;;;;;;;-1.57;68.03516;96779.94;;;;
2020/01/01 01:45:58;;;;;;;225.35;115.1;;;;;;;-1.57;68.03516;96779.94;;;;
2020/01/01 01:46:59;;;;;;;225.35;115.1;;;;;;;-1.57;68.03516;96779.94;;;;
2020/01/01 01:47:59;;;;;;;225.35;115.1;;;;;;;-1.57;68.03516;96779.94;;;;
2020/01/01 01:49:00;;;;;;;225.35;115.1;;;;;;;-1.57;68.03516;96779.94;;;;
2020/01/01 01:50:00;;;;;;;290.9;151.6;;;;;;;-1.33;68.0332;96758.97;;;;
2020/01/01 01:51:01;;;;;;;290.9;151.6;;;;;;;-1.33;68.0332;96758.97;;;;
2020/01/01 01:52:01;;;;;;;290.9;151.6;;;;;;;-1.33;68.0332;96758.97;;;;
2020/01/01 01:53:02;;;;;;;290.9;151.6;;;;;;;-1.33;68.0332;96758.97;;;;
2020/01/01 01:54:02;;;;;;;290.9;151.6;;;;;;;-1.33;68.0332;96758.97;;;;
2020/01/01 01:55:03;;;;;;;290.9;151.6;;;;;;;-1.33;68.0332;96758.97;;;;
2020/01/01 01:56:03;;;;;;;290.9;151.6;;;;;;;-1.33;68.0332;96758.97;;;;
2020/01/01 01:57:04;;;;;;;290.9;151.6;;;;;;;-1.33;68.0332;96758.97;;;;
2020/01/01 01:58:04;;;;;;;290.9;151.6;;;;;;;-1.33;68.0332;96758.97;;;;
2020/01/01 01:59:05;;;;;;;290.9;151.6;;;;;;;-1.33;68.0332;96758.97;;;;
2020/01/01 02:00:06;;;;;;;250.15;133.4;;;;;;;-1.25;68.51465;96744.58;;;;
2020/01/01 02:01:06;;;;;;;250.15;133.4;;;;;;;-1.25;68.51465;96744.58;;;;
2020/01/01 02:02:07;;;;;;;250.15;133.4;;;;;;;-1.25;68.51465;96744.58;;;;
2020/01/01 02:03:07;;;;;;;250.15;133.4;;;;;;;-1.25;68.51465;96744.58;;;;
2020/01/01 02:04:08;;;;;;;250.15;133.4;;;;;;;-1.25;68.51465;96744.58;;;;
2020/01/01 02:05:08;;;;;;;250.15;133.4;;;;;;;-1.25;68.51465;96744.58;;;;
2020/01/01 02:06:09;;;;;;;250.15;133.4;;;;;;;-1.25;68.51465;96744.58;;;;
2020/01/01 02:07:09;;;;;;;250.15;133.4;;;;;;;-1.25;68.51465;96744.58;;;;
2020/01/01 02:08:09;;;;;;;250.15;133.4;;;;;;;-1.25;68.51465;96744.58;;;;
2020/01/01 02:09:10;;;;;;;250.15;133.4;;;;;;;-1.25;68.51465;96744.58;;;;
2020/01/01 02:10:35;;;;;;;270.2501;142.6;;;;;;;-1.33;69.0127;96721.88;;;;
2020/01/01 02:11:36;;;;;;;270.2501;142.6;;;;;;;-1.33;69.0127;96721.88;;;;
2020/01/01 02:12:36;;;;;;;270.2501;142.6;;;;;;;-1.33;69.0127;96721.88;;;;
2020/01/01 02:13:37;;;;;;;270.2501;142.6;;;;;;;-1.33;69.0127;96721.88;;;;
2020/01/01 02:14:37;;;;;;;270.2501;142.6;;;;;;;-1.33;69.0127;96721.88;;;;
2020/01/01 02:15:39;;;;;;;270.2501;142.6;;;;;;;-1.33;69.0127;96721.88;;;;
2020/01/01 02:16:39;;;;;;;270.2501;142.6;;;;;;;-1.33;69.0127;96721.88;;;;
2020/01/01 02:17:39;;;;;;;270.2501;142.6;;;;;;;-1.33;69.0127;96721.88;;;;
2020/01/01 02:18:40;;;;;;;270.2501;142.6;;;;;;;-1.33;69.0127;96721.88;;;;
2020/01/01 02:19:40;;;;;;;270.2501;142.6;;;;;;;-1.33;69.0127;96721.88;;;;
2020/01/01 02:20:41;;;;;;;270.2501;142.6;;;;;;;-1.33;69.0127;96721.88;;;;
2020/01/01 02:21:41;;;;;;;264.45;137.15;;;;;;;-1.57;69.32715;96736.72;;;;
2020/01/01 02:22:42;;;;;;;264.45;137.15;;;;;;;-1.57;69.32715;96736.72;;;;
2020/01/01 02:23:42;;;;;;;264.45;137.15;;;;;;;-1.57;69.32715;96736.72;;;;
2020/01/01 02:24:43;;;;;;;264.45;137.15;;;;;;;-1.57;69.32715;96736.72;;;;
2020/01/01 02:25:43;;;;;;;264.45;137.15;;;;;;;-1.57;69.32715;96736.72;;;;
2020/01/01 02:26:43;;;;;;;264.45;137.15;;;;;;;-1.57;69.32715;96736.72;;;;
2020/01/01 02:27:44;;;;;;;264.45;137.15;;;;;;;-1.57;69.32715;96736.72;;;;
2020/01/01 02:28:44;;;;;;;264.45;137.15;;;;;;;-1.57;69.32715;96736.72;;;;
2020/01/01 02:29:45;;;;;;;264.45;137.15;;;;;;;-1.57;69.32715;96736.72;;;;
2020/01/01 02:30:45;;;;;;;264.45;137.15;;;;;;;-1.57;69.32715;96736.72;;;;
2020/01/01 02:31:46;;;;;;;243.2;129.45;;;;;;;-1.81;69.69629;96728.52;;;;
2020/01/01 02:32:46;;;;;;;243.2;129.45;;;;;;;-1.81;69.69629;96728.52;;;;
2020/01/01 02:33:47;;;;;;;243.2;129.45;;;;;;;-1.81;69.69629;96728.52;;;;
2020/01/01 02:34:47;;;;;;;243.2;129.45;;;;;;;-1.81;69.69629;96728.52;;;;
2020/01/01 02:35:48;;;;;;;243.2;129.45;;;;;;;-1.81;69.69629;96728.52;;;;
2020/01/01 02:36:48;;;;;;;243.2;129.45;;;;;;;-1.81;69.69629;96728.52;;;;
2020/01/01 02:37:49;;;;;;;243.2;129.45;;;;;;;-1.81;69.69629;96728.52;;;;
2020/01/01 02:38:49;;;;;;;243.2;129.45;;;;;;;-1.81;69.69629;96728.52;;;;
2020/01/01 02:39:50;;;;;;;243.2;129.45;;;;;;;-1.81;69.69629;96728.52;;;;
2020/01/01 02:40:50;;;;;;;243.2;129.45;;;;;;;-1.81;69.69629;96728.52;;;;
2020/01/01 02:41:51;;;;;;;243.2;129.45;;;;;;;-1.81;69.69629;96728.52;;;;
2020/01/01 02:42:51;;;;;;;222.6;117.95;;;;;;;-1.97;70.04102;96724.16;;;;
2020/01/01 02:43:52;;;;;;;222.6;117.95;;;;;;;-1.97;70.04102;96724.16;;;;
2020/01/01 02:44:52;;;;;;;222.6;117.95;;;;;;;-1.97;70.04102;96724.16;;;;
2020/01/01 02:45:53;;;;;;;222.6;117.95;;;;;;;-1.97;70.04102;96724.16;;;;
2020/01/01 02:46:53;;;;;;;222.6;117.95;;;;;;;-1.97;70.04102;96724.16;;;;
2020/01/01 02:47:54;;;;;;;222.6;117.95;;;;;;;-1.97;70.04102;96724.16;;;;
2020/01/01 02:48:54;;;;;;;222.6;117.95;;;;;;;-1.97;70.04102;96724.16;;;;
2020/01/01 02:49:55;;;;;;;222.6;117.95;;;;;;;-1.97;70.04102;96724.16;;;;
2020/01/01 02:50:55;;;;;;;222.6;117.95;;;;;;;-1.97;70.04102;96724.16;;;;
2020/01/01 02:51:56;;;;;;;222.6;117.95;;;;;;;-1.97;70.04102;96724.16;;;;
2020/01/01 02:52:56;;;;;;;206.8;107.35;;;;;;;-2.08;70.37793;96710.96;;;;
2020/01/01 02:53:57;;;;;;;206.8;107.35;;;;;;;-2.08;70.37793;96710.96;;;;
2020/01/01 02:54:57;;;;;;;206.8;107.35;;;;;;;-2.08;70.37793;96710.96;;;;
2020/01/01 02:55:58;;;;;;;206.8;107.35;;;;;;;-2.08;70.37793;96710.96;;;;
2020/01/01 02:56:58;;;;;;;206.8;107.35;;;;;;;-2.08;70.37793;96710.96;;;;
2020/01/01 02:57:59;;;;;;;206.8;107.35;;;;;;;-2.08;70.37793;96710.96;;;;
2020/01/01 02:58:59;;;;;;;206.8;107.35;;;;;;;-2.08;70.37793;96710.96;;;;
2020/01/01 02:59:59;;;;;;;206.8;107.35;;;;;;;-2.08;70.37793;96710.96;;;;
2020/01/01 03:01:00;;;;;;;206.8;107.35;;;;;;;-2.08;70.37793;96710.96;;;;
2020/01/01 03:02:00;;;;;;;206.8;107.35;;;;;;;-2.08;70.37793;96710.96;;;;
2020/01/01 03:03:01;;;;;;;206.8;107.35;;;;;;;-2.08;70.37793;96710.96;;;;
2020/01/01 03:04:01;;;;;;;184.5;96.50002;;;;;;;-2.15;70.6377;96704.01;;;;
2020/01/01 03:05:02;;;;;;;184.5;96.50002;;;;;;;-2.15;70.6377;96704.01;;;;
2020/01/01 03:06:03;;;;;;;184.5;96.50002;;;;;;;-2.15;70.6377;96704.01;;;;
2020/01/01 03:07:04;;;;;;;184.5;96.50002;;;;;;;-2.15;70.6377;96704.01;;;;
2020/01/01 03:08:04;;;;;;;184.5;96.50002;;;;;;;-2.15;70.6377;96704.01;;;;
2020/01/01 03:09:05;;;;;;;184.5;96.50002;;;;;;;-2.15;70.6377;96704.01;;;;
2020/01/01 03:10:05;;;;;;;184.5;96.50002;;;;;;;-2.15;70.6377;96704.01;;;;
2020/01/01 03:11:06;;;;;;;184.5;96.50002;;;;;;;-2.15;70.6377;96704.01;;;;
2020/01/01 03:12:06;;;;;;;184.5;96.50002;;;;;;;-2.15;70.6377;96704.01;;;;
2020/01/01 03:13:07;;;;;;;184.5;96.50002;;;;;;;-2.15;70.6377;96704.01;;;;
2020/01/01 03:14:07;;;;;;;158.55;83.75;;;;;;;-2.33;70.77344;96708.12;;;;
2020/01/01 03:15:08;;;;;;;158.55;83.75;;;;;;;-2.33;70.77344;96708.12;;;;
2020/01/01 03:16:08;;;;;;;158.55;83.75;;;;;;;-2.33;70.77344;96708.12;;;;
2020/01/01 03:17:09;;;;;;;158.55;83.75;;;;;;;-2.33;70.77344;96708.12;;;;
2020/01/01 03:18:09;;;;;;;158.55;83.75;;;;;;;-2.33;70.77344;96708.12;;;;
2020/01/01 03:19:10;;;;;;;158.55;83.75;;;;;;;-2.33;70.77344;96708.12;;;;
2020/01/01 03:20:10;;;;;;;158.55;83.75;;;;;;;-2.33;70.77344;96708.12;;;;
2020/01/01 03:21:11;;;;;;;158.55;83.75;;;;;;;-2.33;70.77344;96708.12;;;;
2020/01/01 03:22:11;;;;;;;158.55;83.75;;;;;;;-2.33;70.77344;96708.12;;;;
2020/01/01 03:23:12;;;;;;;158.55;83.75;;;;;;;-2.33;70.77344;96708.12;;;;
2020/01/01 03:29:23;;;;;;;146.3;74.09999;;;;;;;-2.43;71.09766;96710.74;;;;
2020/01/01 03:30:23;;;;;;;146.3;74.09999;;;;;;;-2.43;71.09766;96710.74;;;;
2020/01/01 03:31:24;;;;;;;146.3;74.09999;;;;;;;-2.43;71.09766;96710.74;;;;
2020/01/01 03:32:25;;;;;;;146.3;74.09999;;;;;;;-2.43;71.09766;96710.74;;;;
2020/01/01 03:33:25;;;;;;;146.3;74.09999;;;;;;;-2.43;71.09766;96710.74;;;;
2020/01/01 03:34:26;;;;;;;146.3;74.09999;;;;;;;-2.43;71.09766;96710.74;;;;
2020/01/01 03:35:26;;;;;;;139.4;66.25;;;;;;;-2.51;71.07617;96683.58;;;;
2020/01/01 03:36:27;;;;;;;139.4;66.25;;;;;;;-2.51;71.07617;96683.58;;;;
2020/01/01 03:37:27;;;;;;;139.4;66.25;;;;;;;-2.51;71.07617;96683.58;;;;
2020/01/01 03:38:28;;;;;;;139.4;66.25;;;;;;;-2.51;71.07617;96683.58;;;;
2020/01/01 03:39:28;;;;;;;139.4;66.25;;;;;;;-2.51;71.07617;96683.58;;;;
2020/01/01 03:40:29;;;;;;;139.4;66.25;;;;;;;-2.51;71.07617;96683.58;;;;
2020/01/01 03:41:29;;;;;;;139.4;66.25;;;;;;;-2.51;71.07617;96683.58;;;;
2020/01/01 03:42:30;;;;;;;139.4;66.25;;;;;;;-2.51;71.07617;96683.58;;;;
2020/01/01 03:43:31;;;;;;;139.4;66.25;;;;;;;-2.51;71.07617;96683.58;;;;
2020/01/01 03:44:32;;;;;;;139.4;66.25;;;;;;;-2.51;71.07617;96683.58;;;;
2020/01/01 03:45:33;;;;;;;139.4;66.25;;;;;;;-2.51;71.07617;96683.58;;;;
2020/01/01 03:46:34;;;;;;;115.75;55.55;;;;;;;-2.67;71.21582;96687.51;;;;
2020/01/01 03:48:36;;;;;;;115.75;55.55;;;;;;;-2.67;71.21582;96687.51;;;;
2020/01/01 03:55:03;;;;;;;115.75;55.55;;;;;;;-2.67;71.21582;96687.51;;;;
2020/01/01 03:56:04;;;;;;;115.75;55.55;;;;;;;-2.67;71.21582;96687.51;;;;
2020/01/01 03:57:05;;;;;;;103.45;50.85001;;;;;;;-2.78;71.22754;96694.11;;;;
2020/01/01 03:58:10;;;;;;;103.45;50.85001;;;;;;;-2.78;71.22754;96694.11;;;;
2020/01/01 03:59:11;;;;;;;103.45;50.85001;;;;;;;-2.78;71.22754;96694.11;;;;
2020/01/01 04:00:18;;;;;;;103.45;50.85001;;;;;;;-2.78;71.22754;96694.11;;;;
2020/01/01 04:01:19;;;;;;;103.45;50.85001;;;;;;;-2.78;71.22754;96694.11;;;;
2020/01/01 04:02:26;;;;;;;103.45;50.85001;;;;;;;-2.78;71.22754;96694.11;;;;
2020/01/01 04:03:28;;;;;;;103.45;50.85001;;;;;;;-2.78;71.22754;96694.11;;;;
2020/01/01 04:04:31;;;;;;;103.45;50.85001;;;;;;;-2.78;71.22754;96694.11;;;;
2020/01/01 04:05:36;;;;;;;103.45;50.85001;;;;;;;-2.78;71.22754;96694.11;;;;
2020/01/01 04:06:45;;;;;;;103.45;50.85001;;;;;;;-2.78;71.22754;96694.11;;;;
2020/01/01 04:07:46;;;;;;;99.75001;46.75;;;;;;;-3.03;71.39258;96673.64;;;;
2020/01/01 04:08:47;;;;;;;99.75001;46.75;;;;;;;-3.03;71.39258;96673.64;;;;
2020/01/01 04:09:50;;;;;;;99.75001;46.75;;;;;;;-3.03;71.39258;96673.64;;;;
2020/01/01 04:10:51;;;;;;;99.75001;46.75;;;;;;;-3.03;71.39258;96673.64;;;;
2020/01/01 04:11:51;;;;;;;99.75001;46.75;;;;;;;-3.03;71.39258;96673.64;;;;
2020/01/01 04:12:52;;;;;;;99.75001;46.75;;;;;;;-3.03;71.39258;96673.64;;;;
2020/01/01 04:13:52;;;;;;;99.75001;46.75;;;;;;;-3.03;71.39258;96673.64;;;;
2020/01/01 04:14:52;;;;;;;99.75001;46.75;;;;;;;-3.03;71.39258;96673.64;;;;
2020/01/01 04:15:55;;;;;;;99.75001;46.75;;;;;;;-3.03;71.39258;96673.64;;;;
2020/01/01 04:16:57;;;;;;;99.75001;46.75;;;;;;;-3.03;71.39258;96673.64;;;;
2020/01/01 04:17:57;;;;;;;96.8;45.8;;;;;;;-3.16;71.59961;96672.9;;;;
2020/01/01 04:18:58;;;;;;;96.8;45.8;;;;;;;-3.16;71.59961;96672.9;;;;
2020/01/01 04:19:58;;;;;;;96.8;45.8;;;;;;;-3.16;71.59961;96672.9;;;;
2020/01/01 04:20:59;;;;;;;96.8;45.8;;;;;;;-3.16;71.59961;96672.9;;;;
2020/01/01 04:21:59;;;;;;;96.8;45.8;;;;;;;-3.16;71.59961;96672.9;;;;
2020/01/01 04:23:00;;;;;;;96.8;45.8;;;;;;;-3.16;71.59961;96672.9;;;;
2020/01/01 04:24:00;;;;;;;96.8;45.8;;;;;;;-3.16;71.59961;96672.9;;;;
2020/01/01 04:25:01;;;;;;;96.8;45.8;;;;;;;-3.16;71.59961;96672.9;;;;
2020/01/01 04:26:01;;;;;;;96.8;45.8;;;;;;;-3.16;71.59961;96672.9;;;;
2020/01/01 04:27:02;;;;;;;96.8;45.8;;;;;;;-3.16;71.59961;96672.9;;;;
2020/01/01 04:28:03;;;;;;;96.8;45.8;;;;;;;-3.16;71.59961;96672.9;;;;
2020/01/01 04:29:03;;;;;;;99.64999;46.45;;;;;;;-3.26;71.64453;96679.44;;;;
2020/01/01 04:30:04;;;;;;;99.64999;46.45;;;;;;;-3.26;71.64453;96679.44;;;;
2020/01/01 04:31:04;;;;;;;99.64999;46.45;;;;;;;-3.26;71.64453;96679.44;;;;
2020/01/01 04:32:05;;;;;;;99.64999;46.45;;;;;;;-3.26;71.64453;96679.44;;;;
2020/01/01 04:33:05;;;;;;;99.64999;46.45;;;;;;;-3.26;71.64453;96679.44;;;;
2020/01/01 04:34:06;;;;;;;99.64999;46.45;;;;;;;-3.26;71.64453;96679.44;;;;
2020/01/01 04:35:06;;;;;;;99.64999;46.45;;;;;;;-3.26;71.64453;96679.44;;;;
2020/01/01 04:36:07;;;;;;;99.64999;46.45;;;;;;;-3.26;71.64453;96679.44;;;;
2020/01/01 04:37:07;;;;;;;99.64999;46.45;;;;;;;-3.26;71.64453;96679.44;;;;
2020/01/01 04:38:08;;;;;;;99.64999;46.45;;;;;;;-3.26;71.64453;96679.44;;;;
2020/01/01 04:39:08;;;;;;;99.34999;44.39999;;;;;;;-3.44;71.67676;96682.59;;;;
2020/01/01 04:40:11;;;;;;;99.34999;44.39999;;;;;;;-3.44;71.67676;96682.59;;;;
2020/01/01 04:41:11;;;;;;;99.34999;44.39999;;;;;;;-3.44;71.67676;96682.59;;;;
2020/01/01 04:42:12;;;;;;;99.34999;44.39999;;;;;;;-3.44;71.67676;96682.59;;;;
2020/01/01 04:43:12;;;;;;;99.34999;44.39999;;;;;;;-3.44;71.67676;96682.59;;;;
2020/01/01 04:44:13;;;;;;;99.34999;44.39999;;;;;;;-3.44;71.67676;96682.59;;;;
2020/01/01 04:45:13;;;;;;;99.34999;44.39999;;;;;;;-3.44;71.67676;96682.59;;;;
2020/01/01 04:46:14;;;;;;;99.34999;44.39999;;;;;;;-3.44;71.67676;96682.59;;;;
2020/01/01 04:47:14;;;;;;;99.34999;44.39999;;;;;;;-3.44;71.67676;96682.59;;;;
2020/01/01 04:48:15;;;;;;;99.34999;44.39999;;;;;;;-3.44;71.67676;96682.59;;;;
2020/01/01 04:49:15;;;;;;;99.34999;44.39999;;;;;;;-3.44;71.67676;96682.59;;;;
2020/01/01 04:50:16;;;;;;;96.15001;43.3;;;;;;;-3.59;71.82715;96685.05;;;;
2020/01/01 04:51:16;;;;;;;96.15001;43.3;;;;;;;-3.59;71.82715;96685.05;;;;
2020/01/01 04:52:17;;;;;;;96.15001;43.3;;;;;;;-3.59;71.82715;96685.05;;;;
2020/01/01 04:53:17;;;;;;;96.15001;43.3;;;;;;;-3.59;71.82715;96685.05;;;;
2020/01/01 04:54:18;;;;;;;96.15001;43.3;;;;;;;-3.59;71.82715;96685.05;;;;
2020/01/01 04:55:18;;;;;;;96.15001;43.3;;;;;;;-3.59;71.82715;96685.05;;;;
2020/01/01 04:56:19;;;;;;;96.15001;43.3;;;;;;;-3.59;71.82715;96685.05;;;;
2020/01/01 04:57:19;;;;;;;96.15001;43.3;;;;;;;-3.59;71.82715;96685.05;;;;
2020/01/01 04:58:20;;;;;;;96.15001;43.3;;;;;;;-3.59;71.82715;96685.05;;;;
2020/01/01 04:59:20;;;;;;;96.15001;43.3;;;;;;;-3.59;71.82715;96685.05;;;;
2020/01/01 05:00:20;;;;;;;92.7;42.65;;;;;;;-3.71;71.89941;96675.01;;;;
2020/01/01 05:01:21;;;;;;;92.7;42.65;;;;;;;-3.71;71.89941;96675.01;;;;
2020/01/01 05:02:21;;;;;;;92.7;42.65;;;;;;;-3.71;71.89941;96675.01;;;;
2020/01/01 05:03:22;;;;;;;92.7;42.65;;;;;;;-3.71;71.89941;96675.01;;;;
2020/01/01 05:04:22;;;;;;;92.7;42.65;;;;;;;-3.71;71.89941;96675.01;;;;
2020/01/01 05:05:23;;;;;;;92.7;42.65;;;;;;;-3.71;71.89941;96675.01;;;;
2020/01/01 05:06:23;;;;;;;92.7;42.65;;;;;;;-3.71;71.89941;96675.01;;;;
2020/01/01 05:07:24;;;;;;;92.7;42.65;;;;;;;-3.71;71.89941;96675.01;;;;
2020/01/01 05:08:24;;;;;;;92.7;42.65;;;;;;;-3.71;71.89941;96675.01;;;;
2020/01/01 05:09:25;;;;;;;92.7;42.65;;;;;;;-3.71;71.89941;96675.01;;;;
2020/01/01 05:10:25;;;;;;;92.7;42.65;;;;;;;-3.71;71.89941;96675.01;;;;
2020/01/01 05:11:26;;;;;;;84.25001;40.14999;;;;;;;-3.83;72.06641;96663.98;;;;
2020/01/01 05:12:26;;;;;;;84.25001;40.14999;;;;;;;-3.83;72.06641;96663.98;;;;
2020/01/01 05:13:27;;;;;;;84.25001;40.14999;;;;;;;-3.83;72.06641;96663.98;;;;
2020/01/01 05:14:27;;;;;;;84.25001;40.14999;;;;;;;-3.83;72.06641;96663.98;;;;
2020/01/01 05:15:27;;;;;;;84.25001;40.14999;;;;;;;-3.83;72.06641;96663.98;;;;
2020/01/01 05:16:28;;;;;;;84.25001;40.14999;;;;;;;-3.83;72.06641;96663.98;;;;
2020/01/01 05:17:28;;;;;;;84.25001;40.14999;;;;;;;-3.83;72.06641;96663.98;;;;
2020/01/01 05:18:29;;;;;;;84.25001;40.14999;;;;;;;-3.83;72.06641;96663.98;;;;
2020/01/01 05:19:29;;;;;;;84.25001;40.14999;;;;;;;-3.83;72.06641;96663.98;;;;
2020/01/01 05:20:30;;;;;;;84.25001;40.14999;;;;;;;-3.83;72.06641;96663.98;;;;
2020/01/01 05:21:30;;;;;;;81.8;39.10001;;;;;;;-3.93;72.04688;96670.97;;;;
2020/01/01 05:22:31;;;;;;;81.8;39.10001;;;;;;;-3.93;72.04688;96670.97;;;;
2020/01/01 05:23:31;;;;;;;81.8;39.10001;;;;;;;-3.93;72.04688;96670.97;;;;
2020/01/01 05:24:32;;;;;;;81.8;39.10001;;;;;;;-3.93;72.04688;96670.97;;;;
2020/01/01 05:25:32;;;;;;;81.8;39.10001;;;;;;;-3.93;72.04688;96670.97;;;;
2020/01/01 05:26:33;;;;;;;81.8;39.10001;;;;;;;-3.93;72.04688;96670.97;;;;
2020/01/01 05:27:33;;;;;;;81.8;39.10001;;;;;;;-3.93;72.04688;96670.97;;;;
2020/01/01 05:28:34;;;;;;;81.8;39.10001;;;;;;;-3.93;72.04688;96670.97;;;;
2020/01/01 05:29:34;;;;;;;81.8;39.10001;;;;;;;-3.93;72.04688;96670.97;;;;
2020/01/01 05:30:35;;;;;;;81.8;39.10001;;;;;;;-3.93;72.04688;96670.97;;;;
2020/01/01 05:31:35;;;;;;;81.8;39.10001;;;;;;;-3.93;72.04688;96670.97;;;;
2020/01/01 05:32:36;;;;;;;83.2;39.59999;;;;;;;-4.04;72.08301;96681;;;;
2020/01/01 05:33:36;;;;;;;83.2;39.59999;;;;;;;-4.04;72.08301;96681;;;;
2020/01/01 05:34:36;;;;;;;83.2;39.59999;;;;;;;-4.04;72.08301;96681;;;;
2020/01/01 05:35:37;;;;;;;83.2;39.59999;;;;;;;-4.04;72.08301;96681;;;;
2020/01/01 05:36:37;;;;;;;83.2;39.59999;;;;;;;-4.04;72.08301;96681;;;;
2020/01/01 05:37:38;;;;;;;83.2;39.59999;;;;;;;-4.04;72.08301;96681;;;;